createdAt,value
2017-11-12T00:01:16.294Z,99857.61
2017-11-12T00:03:42.084Z,99863.20
2017-11-12T00:06:07.860Z,99857.19
2017-11-12T00:08:33.682Z,99857.67
2017-11-12T00:10:59.498Z,99859.20
2017-11-12T00:13:25.279Z,99851.47
2017-11-12T00:15:51.082Z,99850.94
2017-11-12T00:18:16.893Z,99840.17
2017-11-12T00:20:42.681Z,99849.42
2017-11-12T00:23:08.474Z,99851.84
2017-11-12T00:25:34.789Z,99847.70
2017-11-12T00:28:00.584Z,99855.66
2017-11-12T00:30:26.382Z,99856.09
2017-11-12T00:32:52.202Z,99846.75
2017-11-12T00:35:17.995Z,99847.23
2017-11-12T00:37:43.793Z,99842.70
2017-11-12T00:40:09.584Z,99838.17
2017-11-12T00:42:35.382Z,99837.88
2017-11-12T00:45:02.008Z,99835.93
2017-11-12T00:47:27.790Z,99837.64
2017-11-12T00:49:53.577Z,99837.02
2017-11-12T00:52:19.396Z,99844.17
2017-11-12T00:54:45.190Z,99847.95
2017-11-12T00:57:10.973Z,99842.70
2017-11-12T00:59:36.781Z,99842.84
2017-11-12T01:02:02.571Z,99840.55
2017-11-12T01:04:29.223Z,99830.39
2017-11-12T01:06:54.996Z,99842.64
2017-11-12T01:09:20.783Z,99840.27
2017-11-12T01:11:46.581Z,99842.59
2017-11-12T01:14:12.379Z,99843.55
2017-11-12T01:16:38.164Z,99848.37
2017-11-12T01:19:03.975Z,99844.75
2017-11-12T01:21:29.763Z,99839.34
2017-11-12T01:23:55.544Z,99842.88
2017-11-12T01:26:21.358Z,99846.98
2017-11-12T01:28:47.157Z,99834.86
2017-11-12T01:31:12.948Z,99833.97
2017-11-12T01:33:38.860Z,99830.95
2017-11-12T01:36:04.665Z,99835.44
2017-11-12T01:38:30.479Z,99832.01
2017-11-12T01:40:56.325Z,99831.39
2017-11-12T01:43:22.149Z,99827.48
2017-11-12T01:45:47.932Z,99822.05
2017-11-12T01:48:13.767Z,99822.52
2017-11-12T01:50:39.573Z,99825.56
2017-11-12T01:53:05.360Z,99823.52
2017-11-12T01:55:31.149Z,99821.66
2017-11-12T01:57:56.972Z,99819.56
2017-11-12T02:00:22.765Z,99824.77
2017-11-12T02:02:48.620Z,99814.84
2017-11-12T02:05:14.453Z,99808.36
2017-11-12T02:07:40.295Z,99811.70
2017-11-12T02:10:06.096Z,99805.92
2017-11-12T02:12:31.889Z,99807.22
2017-11-12T02:14:57.712Z,99809.64
2017-11-12T02:17:23.500Z,99814.75
2017-11-12T02:19:49.388Z,99814.42
2017-11-12T02:22:15.397Z,99810.70
2017-11-12T02:24:41.264Z,99810.27
2017-11-12T02:27:07.483Z,99811.42
2017-11-12T02:29:34.189Z,99809.08
2017-11-12T02:31:59.996Z,99810.41
2017-11-12T02:34:25.812Z,99815.47
2017-11-12T02:36:51.670Z,99799.20
2017-11-12T02:39:17.493Z,99810.55
2017-11-12T02:41:43.316Z,99807.31
2017-11-12T02:44:09.195Z,99815.75
2017-11-12T02:46:35.021Z,99807.03
2017-11-12T02:49:00.823Z,99805.34
2017-11-12T02:51:26.621Z,99807.17
2017-11-12T02:53:52.445Z,99812.38
2017-11-12T02:56:18.305Z,99805.88
2017-11-12T02:58:44.121Z,99820.33
2017-11-12T03:01:09.913Z,99820.05
2017-11-12T03:03:35.728Z,99821.20
2017-11-12T03:06:01.524Z,99815.71
2017-11-12T03:08:27.331Z,99809.75
2017-11-12T03:10:53.172Z,99797.16
2017-11-12T03:13:18.954Z,99804.49
2017-11-12T03:15:44.746Z,99802.40
2017-11-12T03:18:10.748Z,99804.50
2017-11-12T03:20:36.564Z,99805.68
2017-11-12T03:23:02.426Z,99814.12
2017-11-12T03:25:28.240Z,99815.33
2017-11-12T03:27:54.092Z,99817.94
2017-11-12T03:30:19.940Z,99819.89
2017-11-12T03:32:45.781Z,99822.41
2017-11-12T03:35:11.600Z,99811.45
2017-11-12T03:37:37.377Z,99791.89
2017-11-12T03:40:03.273Z,99788.37
2017-11-12T03:42:29.052Z,99786.66
2017-11-12T03:44:54.863Z,99783.41
2017-11-12T03:47:20.708Z,99781.55
2017-11-12T03:49:46.488Z,99777.45
2017-11-12T03:52:12.328Z,99778.11
2017-11-12T03:54:38.148Z,99770.06
2017-11-12T03:57:03.951Z,99770.30
2017-11-12T03:59:29.738Z,99774.08
2017-11-12T04:01:55.565Z,99770.06
2017-11-12T04:04:21.370Z,99770.06
2017-11-12T04:06:47.171Z,99772.87
2017-11-12T04:09:13.065Z,99764.39
2017-11-12T04:11:38.849Z,99758.00
2017-11-12T04:14:04.649Z,99759.33
2017-11-12T04:16:30.461Z,99760.14
2017-11-12T04:18:56.255Z,99761.34
2017-11-12T04:21:22.047Z,99752.00
2017-11-12T04:23:47.868Z,99751.14
2017-11-12T04:26:13.652Z,99748.08
2017-11-12T04:28:39.434Z,99742.69
2017-11-12T04:31:05.225Z,99745.38
2017-11-12T04:33:31.028Z,99760.95
2017-11-12T04:35:56.834Z,99752.55
2017-11-12T04:38:22.627Z,99757.58
2017-11-12T04:40:48.416Z,99746.27
2017-11-12T04:43:14.234Z,99734.53
2017-11-12T04:45:40.053Z,99739.06
2017-11-12T04:48:05.849Z,99721.99
2017-11-12T04:50:31.633Z,99719.95
2017-11-12T04:52:57.901Z,99724.23
2017-11-12T04:55:23.705Z,99718.71
2017-11-12T04:57:49.496Z,99715.77
2017-11-12T05:00:15.617Z,99717.58
2017-11-12T05:02:41.424Z,99711.52
2017-11-12T05:05:07.249Z,99714.38
2017-11-12T05:07:33.051Z,99708.41
2017-11-12T05:09:58.842Z,99713.83
2017-11-12T05:12:25.482Z,99717.57
2017-11-12T05:14:51.275Z,99713.59
2017-11-12T05:17:17.045Z,99707.92
2017-11-12T05:19:43.207Z,99701.25
2017-11-12T05:22:09.000Z,99690.70
2017-11-12T05:24:34.775Z,99686.04
2017-11-12T05:27:00.603Z,99683.74
2017-11-12T05:29:26.394Z,99685.98
2017-11-12T05:31:52.185Z,99689.75
2017-11-12T05:34:18.324Z,99685.52
2017-11-12T05:36:44.104Z,99680.44
2017-11-12T05:39:09.944Z,99680.55
2017-11-12T05:41:35.744Z,99684.85
2017-11-12T05:44:01.536Z,99681.58
2017-11-12T05:46:27.362Z,99670.50
2017-11-12T05:48:53.157Z,99665.44
2017-11-12T05:51:18.940Z,99663.94
2017-11-12T05:53:44.963Z,99670.02
2017-11-12T05:56:10.757Z,99666.04
2017-11-12T05:58:36.577Z,99664.35
2017-11-12T06:01:02.387Z,99664.53
2017-11-12T06:03:28.188Z,99667.88
2017-11-12T06:05:54.001Z,99666.27
2017-11-12T06:08:19.810Z,99662.48
2017-11-12T06:10:45.643Z,99657.97
2017-11-12T06:13:11.425Z,99657.72
2017-11-12T06:15:37.252Z,99661.24
2017-11-12T06:18:03.080Z,99659.75
2017-11-12T06:20:28.901Z,99663.14
2017-11-12T06:22:54.740Z,99665.11
2017-11-12T06:25:20.534Z,99657.34
2017-11-12T06:27:46.340Z,99654.35
2017-11-12T06:30:12.124Z,99660.97
2017-11-12T06:32:37.905Z,99659.42
2017-11-12T06:35:03.728Z,99655.39
2017-11-12T06:37:29.508Z,99656.64
2017-11-12T06:39:55.331Z,99659.86
2017-11-12T06:42:21.125Z,99659.14
2017-11-12T06:44:46.915Z,99651.94
2017-11-12T06:47:13.083Z,99646.88
2017-11-12T06:49:38.877Z,99649.96
2017-11-12T06:52:04.671Z,99651.78
2017-11-12T06:54:30.472Z,99661.17
2017-11-12T06:56:56.253Z,99657.14
2017-11-12T06:59:22.048Z,99649.20
2017-11-12T07:01:47.847Z,99646.52
2017-11-12T07:04:13.633Z,99644.72
2017-11-12T07:06:39.428Z,99643.84
2017-11-12T07:09:05.261Z,99640.44
2017-11-12T07:11:31.050Z,99639.00
2017-11-12T07:13:56.836Z,99632.19
2017-11-12T07:16:22.668Z,99625.67
2017-11-12T07:18:48.481Z,99627.48
2017-11-12T07:21:14.264Z,99623.23
2017-11-12T07:23:40.068Z,99618.52
2017-11-12T07:26:05.866Z,99616.64
2017-11-12T07:28:31.655Z,99611.36
2017-11-12T07:30:57.610Z,99608.50
2017-11-12T07:33:23.399Z,99610.23
2017-11-12T07:35:49.192Z,99595.94
2017-11-12T07:38:14.995Z,99600.28
2017-11-12T07:40:40.785Z,99605.20
2017-11-12T07:43:06.615Z,99604.40
2017-11-12T07:45:32.417Z,99609.21
2017-11-12T07:47:58.229Z,99604.78
2017-11-12T07:50:24.018Z,99602.75
2017-11-12T07:52:50.166Z,99601.69
2017-11-12T07:55:15.972Z,99599.43
2017-11-12T07:57:41.810Z,99592.81
2017-11-12T08:00:07.745Z,99593.45
2017-11-12T08:02:33.560Z,99587.91
2017-11-12T08:04:59.355Z,99595.67
2017-11-12T08:07:25.245Z,99589.80
2017-11-12T08:09:51.037Z,99593.88
2017-11-12T08:12:16.854Z,99589.67
2017-11-12T08:14:42.903Z,99588.33
2017-11-12T08:17:08.701Z,99589.61
2017-11-12T08:19:34.488Z,99585.20
2017-11-12T08:22:00.305Z,99586.55
2017-11-12T08:24:26.132Z,99581.31
2017-11-12T08:26:51.931Z,99592.42
2017-11-12T08:29:17.724Z,99590.50
2017-11-12T08:31:43.513Z,99584.57
2017-11-12T08:34:09.305Z,99580.33
2017-11-12T08:36:35.157Z,99580.76
2017-11-12T08:39:00.985Z,99585.30
2017-11-12T08:41:26.764Z,99591.05
2017-11-12T08:43:52.689Z,99590.83
2017-11-12T08:46:18.531Z,99592.31
2017-11-12T08:48:44.381Z,99583.55
2017-11-12T08:51:10.512Z,99585.73
2017-11-12T08:53:36.331Z,99585.86
2017-11-12T08:56:02.177Z,99580.08
2017-11-12T08:58:28.197Z,99578.33
2017-11-12T09:00:53.992Z,99577.47
2017-11-12T09:03:19.785Z,99568.17
2017-11-12T09:05:45.935Z,99568.67
2017-11-12T09:08:11.727Z,99573.90
2017-11-12T09:10:37.512Z,99565.97
2017-11-12T09:13:03.318Z,99571.61
2017-11-12T09:15:29.114Z,99567.93
2017-11-12T09:17:54.950Z,99563.42
2017-11-12T09:20:20.745Z,99558.74
2017-11-12T09:22:46.529Z,99555.13
2017-11-12T09:25:12.595Z,99549.38
2017-11-12T09:27:38.397Z,99542.41
2017-11-12T09:30:04.198Z,99539.80
2017-11-12T09:32:30.027Z,99537.09
2017-11-12T09:34:55.835Z,99529.91
2017-11-12T09:37:21.640Z,99528.05
2017-11-12T09:39:47.432Z,99524.19
2017-11-12T09:42:13.229Z,99519.55
2017-11-12T09:44:39.340Z,99515.55
2017-11-12T09:47:05.147Z,99508.97
2017-11-12T09:49:30.941Z,99504.16
2017-11-12T09:51:57.567Z,99502.68
2017-11-12T09:54:23.375Z,99499.58
2017-11-12T09:56:49.191Z,99504.53
2017-11-12T09:59:15.018Z,99496.98
2017-11-12T10:01:40.825Z,99491.70
2017-11-12T10:04:06.619Z,99487.30
2017-11-12T10:06:33.238Z,99489.80
2017-11-12T10:08:59.032Z,99488.54
2017-11-12T10:11:24.812Z,99481.70
2017-11-12T10:13:50.609Z,99481.80
2017-11-12T10:16:16.401Z,99468.91
2017-11-12T10:18:42.172Z,99467.55
2017-11-12T10:21:08.159Z,99464.97
2017-11-12T10:23:33.949Z,99467.35
2017-11-12T10:25:59.729Z,99456.16
2017-11-12T10:28:25.800Z,99453.88
2017-11-12T10:30:51.590Z,99449.71
2017-11-12T10:33:17.373Z,99446.30
2017-11-12T10:35:43.477Z,99436.65
2017-11-12T10:38:09.259Z,99430.62
2017-11-12T10:40:35.056Z,99434.36
2017-11-12T10:43:00.870Z,99424.17
2017-11-12T10:45:26.669Z,99427.15
2017-11-12T10:47:52.481Z,99429.08
2017-11-12T10:50:18.306Z,99420.91
2017-11-12T10:52:44.085Z,99420.47
2017-11-12T10:55:09.870Z,99426.80
2017-11-12T10:57:35.701Z,99432.75
2017-11-12T11:00:01.495Z,99427.50
2017-11-12T11:02:27.281Z,99423.27
2017-11-12T11:04:53.105Z,99415.30
2017-11-12T11:07:18.900Z,99414.78
2017-11-12T11:09:44.680Z,99413.64
2017-11-12T11:12:10.476Z,99411.41
2017-11-12T11:14:36.435Z,99408.58
2017-11-12T11:17:02.481Z,99416.22
2017-11-12T11:19:28.278Z,99399.14
2017-11-12T11:21:54.060Z,99394.34
2017-11-12T11:24:20.148Z,99394.39
2017-11-12T11:26:45.940Z,99389.57
2017-11-12T11:29:11.734Z,99389.80
2017-11-12T11:31:37.541Z,99389.37
2017-11-12T11:34:03.354Z,99390.85
2017-11-12T11:36:29.136Z,99393.91
2017-11-12T11:38:55.789Z,99396.67
2017-11-12T11:41:21.580Z,99395.03
2017-11-12T11:43:47.372Z,99391.56
2017-11-12T11:46:13.166Z,99403.33
2017-11-12T11:48:38.956Z,99399.45
2017-11-12T11:51:04.744Z,99387.56
2017-11-12T11:53:30.585Z,99383.56
2017-11-12T11:55:56.416Z,99380.88
2017-11-12T11:58:22.226Z,99386.13
2017-11-12T12:00:48.038Z,99380.25
2017-11-12T12:03:13.861Z,99373.59
2017-11-12T12:05:39.684Z,99373.10
2017-11-12T12:08:05.476Z,99384.25
2017-11-12T12:10:31.275Z,99383.47
2017-11-12T12:12:57.092Z,99395.19
2017-11-12T12:15:22.872Z,99395.09
2017-11-12T12:17:48.669Z,99393.45
2017-11-12T12:20:14.481Z,99391.94
2017-11-12T12:22:40.251Z,99387.53
2017-11-12T12:25:06.047Z,99381.64
2017-11-12T12:27:31.878Z,99379.02
2017-11-12T12:29:57.665Z,99380.80
2017-11-12T12:32:23.450Z,99373.21
2017-11-12T12:34:49.285Z,99376.08
2017-11-12T12:37:15.073Z,99372.39
2017-11-12T12:39:40.865Z,99369.09
2017-11-12T12:42:06.701Z,99362.94
2017-11-12T12:44:32.525Z,99362.31
2017-11-12T12:46:58.340Z,99365.86
2017-11-12T12:49:24.487Z,99363.05
2017-11-12T12:51:50.284Z,99360.03
2017-11-12T12:54:16.098Z,99363.05
2017-11-12T12:56:41.914Z,99357.78
2017-11-12T12:59:07.708Z,99352.84
2017-11-12T13:01:33.508Z,99355.05
2017-11-12T13:04:00.334Z,99350.66
2017-11-12T13:06:26.154Z,99351.06
2017-11-12T13:08:51.933Z,99352.52
2017-11-12T13:11:17.772Z,99352.73
2017-11-12T13:13:43.578Z,99350.00
2017-11-12T13:16:09.369Z,99350.77
2017-11-12T13:18:35.171Z,99364.33
2017-11-12T13:21:00.993Z,99361.80
2017-11-12T13:23:26.789Z,99349.52
2017-11-12T13:25:52.572Z,99352.05
2017-11-12T13:28:18.396Z,99349.98
2017-11-12T13:30:44.196Z,99355.71
2017-11-12T13:33:09.983Z,99358.45
2017-11-12T13:35:35.834Z,99365.75
2017-11-12T13:38:01.645Z,99370.00
2017-11-12T13:40:27.436Z,99373.68
2017-11-12T13:42:53.269Z,99368.37
2017-11-12T13:45:19.106Z,99376.75
2017-11-12T13:47:44.925Z,99374.77
2017-11-12T13:50:10.716Z,99373.17
2017-11-12T13:52:36.506Z,99374.61
2017-11-12T13:55:02.315Z,99367.80
2017-11-12T13:57:28.092Z,99375.81
2017-11-12T13:59:53.876Z,99382.72
2017-11-12T14:02:19.696Z,99374.25
2017-11-12T14:04:46.296Z,99373.08
2017-11-12T14:07:12.081Z,99371.67
2017-11-12T14:09:37.921Z,99363.23
2017-11-12T14:12:03.734Z,99364.23
2017-11-12T14:16:55.236Z,99362.97
2017-11-12T14:19:21.022Z,99357.70
2017-11-12T14:21:46.825Z,99364.06
2017-11-12T14:24:13.553Z,99361.58
2017-11-12T14:26:39.370Z,99367.14
2017-11-12T14:29:05.164Z,99365.12
2017-11-12T14:31:30.958Z,99363.62
2017-11-12T14:33:56.748Z,99368.61
2017-11-12T14:36:22.554Z,99368.95
2017-11-12T14:38:48.365Z,99360.46
2017-11-12T14:41:14.161Z,99362.77
2017-11-12T14:43:40.220Z,99363.16
2017-11-12T14:46:06.041Z,99369.87
2017-11-12T14:48:31.856Z,99373.61
2017-11-12T14:50:57.681Z,99378.37
2017-11-12T14:53:23.453Z,99384.52
2017-11-12T14:55:49.306Z,99379.19
2017-11-12T14:58:15.127Z,99383.87
2017-11-12T15:00:47.897Z,99394.31
2017-11-12T15:03:14.640Z,99392.98
2017-11-12T15:05:40.448Z,99404.28
2017-11-12T15:08:06.253Z,99406.63
2017-11-12T15:10:32.057Z,99405.72
2017-11-12T15:12:57.857Z,99401.59
2017-11-12T15:15:23.644Z,99402.65
2017-11-12T15:17:49.764Z,99401.98
2017-11-12T15:20:15.573Z,99407.63
2017-11-12T15:22:41.369Z,99403.02
2017-11-12T15:25:07.174Z,99404.44
2017-11-12T15:27:32.954Z,99411.95
2017-11-12T15:29:58.742Z,99407.72
2017-11-12T15:32:24.537Z,99410.69
2017-11-12T15:34:50.327Z,99410.80
2017-11-12T15:37:16.118Z,99417.42
2017-11-12T15:39:41.905Z,99413.75
2017-11-12T15:42:07.692Z,99423.52
2017-11-12T15:44:33.485Z,99423.87
2017-11-12T15:46:59.356Z,99424.87
2017-11-12T15:49:25.168Z,99433.48
2017-11-12T15:54:23.574Z,99431.75
2017-11-12T15:56:49.365Z,99436.97
2017-11-12T15:59:15.150Z,99434.69
2017-11-12T16:01:40.950Z,99430.97
2017-11-12T16:04:06.744Z,99431.30
2017-11-12T16:06:32.566Z,99435.06
2017-11-12T16:08:58.357Z,99435.78
2017-11-12T16:11:24.205Z,99435.94
2017-11-12T16:13:50.542Z,99436.28
2017-11-12T16:16:16.352Z,99436.37
2017-11-12T16:18:42.149Z,99439.89
2017-11-12T16:21:07.971Z,99438.73
2017-11-12T16:23:33.745Z,99445.03
2017-11-12T16:25:59.531Z,99450.70
2017-11-12T16:28:25.337Z,99449.42
2017-11-12T16:30:51.140Z,99454.16
2017-11-12T16:33:16.924Z,99454.45
2017-11-12T16:35:42.759Z,99454.59
2017-11-12T16:38:08.565Z,99454.55
2017-11-12T16:40:41.440Z,99461.44
2017-11-12T16:43:07.234Z,99453.19
2017-11-12T16:45:33.025Z,99457.48
2017-11-12T16:47:58.859Z,99456.27
2017-11-12T16:50:24.760Z,99457.37
2017-11-12T16:52:50.558Z,99455.27
2017-11-12T16:55:16.361Z,99459.39
2017-11-12T16:57:42.170Z,99463.81
2017-11-12T17:00:07.957Z,99460.62
2017-11-12T17:02:34.753Z,99468.94
2017-11-12T17:05:00.548Z,99463.96
2017-11-12T17:07:26.348Z,99464.39
2017-11-12T17:09:52.161Z,99463.54
2017-11-12T17:12:17.955Z,99462.72
2017-11-12T17:14:43.790Z,99467.95
2017-11-12T17:17:09.612Z,99471.44
2017-11-12T17:19:35.507Z,99476.23
2017-11-12T17:22:01.289Z,99474.86
2017-11-12T17:24:27.102Z,99479.65
2017-11-12T17:26:52.885Z,99481.83
2017-11-12T17:29:18.678Z,99486.03
2017-11-12T17:31:44.589Z,99483.03
2017-11-12T17:34:10.400Z,99489.48
2017-11-12T17:36:36.185Z,99492.41
2017-11-12T17:39:02.220Z,99500.77
2017-11-12T17:41:28.017Z,99504.41
2017-11-12T17:43:53.806Z,99509.44
2017-11-12T17:46:19.606Z,99503.19
2017-11-12T17:48:45.382Z,99512.63
2017-11-12T17:51:11.183Z,99513.53
2017-11-12T17:53:37.008Z,99511.23
2017-11-12T17:56:02.829Z,99517.34
2017-11-12T17:58:28.626Z,99522.55
2017-11-12T18:00:54.628Z,99525.06
2017-11-12T18:03:20.421Z,99526.16
2017-11-12T18:05:46.226Z,99530.77
2017-11-12T18:08:12.398Z,99543.61
2017-11-12T18:10:38.194Z,99541.00
2017-11-12T18:13:04.021Z,99546.38
2017-11-12T18:15:29.830Z,99551.93
2017-11-12T18:17:55.637Z,99553.66
2017-11-12T18:20:21.453Z,99558.33
2017-11-12T18:22:47.370Z,99558.91
2017-11-12T18:25:13.202Z,99567.06
2017-11-12T18:27:39.004Z,99557.59
2017-11-12T18:30:05.473Z,99560.66
2017-11-12T18:32:31.283Z,99569.15
2017-11-12T18:34:57.077Z,99566.41
2017-11-12T18:37:22.885Z,99567.09
2017-11-12T18:39:48.723Z,99567.50
2017-11-12T18:42:14.550Z,99573.27
2017-11-12T18:44:41.208Z,99572.16
2017-11-12T18:47:07.041Z,99579.63
2017-11-12T18:49:32.902Z,99580.17
2017-11-12T18:51:58.721Z,99589.16
2017-11-12T18:54:26.335Z,99595.30
2017-11-12T18:57:02.207Z,99604.16
2017-11-12T18:59:30.850Z,99599.91
2017-11-12T19:02:02.791Z,99608.00
2017-11-12T19:04:28.615Z,99607.39
2017-11-12T19:09:58.606Z,99612.86
2017-11-12T19:12:24.472Z,99614.09
2017-11-12T19:14:50.332Z,99622.73
2017-11-12T19:17:16.169Z,99625.45
2017-11-12T19:19:49.237Z,99627.30
2017-11-12T19:22:25.028Z,99633.98
2017-11-12T19:24:53.727Z,99633.98
2017-11-12T19:27:25.737Z,99643.56
2017-11-12T19:29:54.316Z,99647.05
2017-11-12T19:32:20.170Z,99658.96
2017-11-12T19:34:47.015Z,99659.95
2017-11-12T19:37:12.874Z,99666.11
2017-11-12T19:39:38.700Z,99667.78
2017-11-12T19:42:04.526Z,99674.08
2017-11-12T19:44:30.384Z,99676.72
2017-11-12T19:46:56.221Z,99675.64
2017-11-12T19:49:22.050Z,99679.27
2017-11-12T19:51:48.229Z,99682.61
2017-11-12T19:54:14.144Z,99684.78
2017-11-12T19:56:40.007Z,99688.98
2017-11-12T19:59:05.918Z,99693.22
2017-11-12T20:01:31.816Z,99694.94
2017-11-12T20:03:57.654Z,99696.00
2017-11-12T20:06:23.544Z,99700.91
2017-11-12T20:08:49.405Z,99699.25
2017-11-12T20:11:15.240Z,99698.91
2017-11-12T20:13:41.133Z,99710.34
2017-11-12T20:16:07.006Z,99711.79
2017-11-12T20:18:32.880Z,99722.14
2017-11-12T20:20:59.180Z,99727.80
2017-11-12T20:23:25.547Z,99724.41
2017-11-12T20:25:51.356Z,99728.11
2017-11-12T20:28:17.351Z,99722.80
2017-11-12T20:30:43.175Z,99734.70
2017-11-12T20:33:09.018Z,99736.45
2017-11-12T20:35:34.845Z,99739.41
2017-11-12T20:38:00.959Z,99743.18
2017-11-12T20:40:26.800Z,99748.63
2017-11-12T20:42:52.626Z,99748.11
2017-11-12T20:45:18.453Z,99757.08
2017-11-12T20:47:44.301Z,99761.91
2017-11-12T20:50:10.147Z,99762.59
2017-11-12T20:52:35.970Z,99765.42
2017-11-12T20:55:04.831Z,99767.30
2017-11-12T20:57:30.649Z,99768.77
2017-11-12T20:59:56.467Z,99768.33
2017-11-12T21:02:22.300Z,99773.11
2017-11-12T21:04:48.134Z,99779.63
2017-11-12T21:07:13.941Z,99783.70
2017-11-12T21:09:39.748Z,99783.09
2017-11-12T21:12:05.578Z,99785.91
2017-11-12T21:14:31.386Z,99789.14
2017-11-12T21:16:57.212Z,99788.55
2017-11-12T21:19:25.347Z,99784.91
2017-11-12T21:24:50.865Z,99793.61
2017-11-12T21:27:20.700Z,99800.70
2017-11-12T21:29:50.568Z,99805.20
2017-11-12T21:32:23.172Z,99806.84
2017-11-12T21:34:52.801Z,99815.45
2017-11-12T21:40:18.626Z,99822.58
2017-11-12T21:42:44.436Z,99813.06
2017-11-12T21:45:10.248Z,99819.39
2017-11-12T21:47:36.050Z,99826.56
2017-11-12T21:50:01.880Z,99828.05
2017-11-12T21:52:27.681Z,99838.20
2017-11-12T21:54:53.464Z,99832.58
2017-11-12T21:57:19.245Z,99840.07
2017-11-12T21:59:45.060Z,99835.44
2017-11-12T22:02:10.905Z,99839.66
2017-11-12T22:04:36.708Z,99846.89
2017-11-12T22:07:02.511Z,99839.06
2017-11-12T22:09:28.418Z,99838.25
2017-11-12T22:11:54.195Z,99839.75
2017-11-12T22:14:19.975Z,99851.50
2017-11-12T22:16:45.783Z,99850.97
2017-11-12T22:19:11.581Z,99858.58
2017-11-12T22:21:37.382Z,99863.73
2017-11-12T22:24:03.227Z,99867.89
2017-11-12T22:26:29.019Z,99866.95
2017-11-12T22:28:54.813Z,99875.14
2017-11-12T22:31:20.653Z,99871.06
2017-11-12T22:33:46.441Z,99869.81
2017-11-12T22:36:12.228Z,99884.51
2017-11-12T22:38:38.025Z,99880.98
2017-11-12T22:41:03.817Z,99883.30
2017-11-12T22:43:29.613Z,99888.00
2017-11-12T22:45:55.421Z,99892.24
2017-11-12T22:48:21.220Z,99891.00
2017-11-12T22:50:47.013Z,99898.08
2017-11-12T22:53:12.817Z,99908.72
2017-11-12T22:55:38.594Z,99911.59
2017-11-12T22:58:04.417Z,99916.98
2017-11-12T23:00:30.260Z,99919.98
2017-11-12T23:02:56.049Z,99919.47
2017-11-12T23:05:21.828Z,99925.73
2017-11-12T23:07:47.612Z,99929.70
2017-11-12T23:10:13.400Z,99931.46
2017-11-12T23:12:39.193Z,99931.80
2017-11-12T23:15:04.977Z,99932.08
2017-11-12T23:17:30.766Z,99933.28
2017-11-12T23:19:56.605Z,99935.23
2017-11-12T23:22:22.404Z,99936.52
2017-11-12T23:24:48.194Z,99943.93
2017-11-12T23:27:14.308Z,99944.67
2017-11-12T23:29:40.086Z,99936.47
2017-11-12T23:32:05.873Z,99937.85
2017-11-12T23:34:31.872Z,99944.41
2017-11-12T23:36:57.657Z,99943.53
2017-11-12T23:39:23.462Z,99944.39
2017-11-12T23:41:49.261Z,99947.78
2017-11-12T23:44:15.063Z,99945.59
2017-11-12T23:46:40.859Z,99953.80
2017-11-12T23:49:06.669Z,99952.66
2017-11-12T23:51:32.444Z,99952.80
2017-11-12T23:53:58.230Z,99956.05
2017-11-12T23:56:24.062Z,99962.58
2017-11-12T23:58:49.861Z,99963.16
